Time;durP1;ratioP1;P1;durP2;ratioP2;P2;SDS_P1;SDS_P2;PMS_P1;PMS_P2;Temp;Humidity;BMP_temperature;BMP_pressure;BME280_temperature;BME280_humidity;BME280_pressure;Samples;Min_cycle;Max_cycle;Signal;HPM_P1;HPM_P2
2023/04/11 00:05:35;;;;;;;10.80;3.87;;;;;;;14.31;100.00;100038.44;31404074;28;20044;-83
2023/04/11 00:20:37;;;;;;;7.57;4.20;;;;;;;14.10;100.00;100022.81;31388245;28;20547;-82
2023/04/11 00:35:40;;;;;;;11.50;4.10;;;;;;;14.09;100.00;100002.19;31374066;28;20049;-82
2023/04/11 00:50:42;;;;;;;6.37;3.67;;;;;;;13.92;100.00;100005.13;31381016;28;20064;-81
2023/04/11 01:05:47;;;;;;;9.07;4.20;;;;;;;13.72;100.00;99971.13;31373579;28;20052;-80
2023/04/11 01:20:49;;;;;;;8.87;4.07;;;;;;;13.83;100.00;99983.19;31403211;28;20056;-81
2023/04/11 01:35:51;;;;;;;5.80;3.17;;;;;;;14.23;100.00;99966.94;31398363;28;20067;-82
2023/04/11 01:50:55;;;;;;;5.67;3.50;;;;;;;14.15;100.00;99962.97;31415509;28;20064;-81
2023/04/11 02:05:57;;;;;;;5.17;3.20;;;;;;;14.16;100.00;99944.63;31409638;28;20049;-83
2023/04/11 02:20:59;;;;;;;8.47;4.07;;;;;;;14.02;100.00;99942.41;31412626;28;20102;-82
2023/04/11 02:36:01;;;;;;;4.73;3.63;;;;;;;14.03;100.00;99941.94;31410839;28;20461;-81
2023/04/11 02:51:03;;;;;;;8.43;3.70;;;;;;;13.95;100.00;99938.72;31397338;28;20057;-80
2023/04/11 03:06:06;;;;;;;7.47;3.70;;;;;;;14.04;100.00;99921.63;31373252;28;20076;-82
2023/04/11 03:21:09;;;;;;;7.00;3.27;;;;;;;13.86;100.00;99933.19;31401246;28;20060;-81
2023/04/11 03:36:11;;;;;;;9.60;3.50;;;;;;;13.90;100.00;99925.66;31396538;28;20049;-83
2023/04/11 03:51:13;;;;;;;11.17;3.70;;;;;;;13.77;100.00;99930.41;31386691;28;20091;-83
2023/04/11 04:06:16;;;;;;;8.83;3.87;;;;;;;13.69;100.00;99926.41;31366461;28;20481;-82
2023/04/11 04:21:18;;;;;;;5.63;3.70;;;;;;;13.74;100.00;99922.34;31372467;28;20052;-81
2023/04/11 04:36:20;;;;;;;6.50;3.07;;;;;;;13.72;100.00;99905.66;31381767;28;20049;-78
2023/04/11 04:51:21;;;;;;;4.00;2.90;;;;;;;13.78;100.00;99904.66;31362650;28;20122;-78
2023/04/11 05:06:30;;;;;;;7.07;3.23;;;;;;;13.87;100.00;99899.25;31329800;28;20079;-76
2023/04/11 05:21:32;;;;;;;5.87;3.80;;;;;;;14.05;100.00;99884.19;31363190;28;20106;-78
2023/04/11 05:36:35;;;;;;;6.50;2.90;;;;;;;14.25;100.00;99879.88;31330633;28;20045;-77
2023/04/11 05:51:37;;;;;;;5.43;3.27;;;;;;;14.58;100.00;99847.44;31329137;28;20111;-77
2023/04/11 06:06:39;;;;;;;7.00;3.47;;;;;;;14.92;100.00;99846.41;31365628;28;20417;-77
2023/04/11 06:21:41;;;;;;;6.57;2.97;;;;;;;15.28;100.00;99844.94;31373996;28;20057;-75
2023/04/11 06:36:43;;;;;;;8.30;3.63;;;;;;;15.53;100.00;99832.91;31355384;28;20055;-75
2023/04/11 06:51:53;;;;;;;6.43;3.70;;;;;;;15.75;100.00;99835.47;31355932;28;20095;-75
2023/04/11 07:06:55;;;;;;;5.57;3.23;;;;;;;15.83;100.00;99790.88;31355777;28;20081;-74
2023/04/11 07:21:57;;;;;;;9.13;3.00;;;;;;;15.94;100.00;99780.22;31332444;28;20092;-75
2023/04/11 07:36:59;;;;;;;11.67;2.60;;;;;;;16.17;100.00;99786.19;31329154;28;20044;-75
2023/04/11 07:52:02;;;;;;;11.23;3.10;;;;;;;16.48;100.00;99762.00;31338641;28;20061;-79
2023/04/11 08:07:05;;;;;;;7.00;3.17;;;;;;;16.48;100.00;99777.66;31320404;28;20048;-79
2023/04/11 08:22:07;;;;;;;8.57;3.03;;;;;;;17.17;100.00;99749.91;31336291;28;20057;-74
2023/04/11 08:37:09;;;;;;;7.03;3.03;;;;;;;17.29;100.00;99713.19;31343986;28;20129;-76
2023/04/11 08:52:12;;;;;;;5.63;2.80;;;;;;;17.34;100.00;99701.56;31342827;28;21552;-75
2023/04/11 09:07:15;;;;;;;5.10;2.63;;;;;;;17.75;100.00;99655.03;31341127;28;20096;-73
2023/04/11 09:22:17;;;;;;;4.73;2.80;;;;;;;18.31;100.00;99653.03;31341011;28;20469;-73
2023/04/11 09:37:19;;;;;;;10.83;2.60;;;;;;;18.26;100.00;99670.94;31359179;28;20053;-75
2023/04/11 09:52:21;;;;;;;6.33;2.87;;;;;;;18.04;100.00;99611.00;31333901;28;20167;-74
2023/04/11 10:07:24;;;;;;;7.00;2.80;;;;;;;17.66;100.00;99586.56;31341283;28;20077;-77
2023/04/11 10:22:45;;;;;;;2.90;2.07;;;;;;;17.97;100.00;99564.72;31368867;28;20064;-75
2023/04/11 10:37:47;;;;;;;6.10;2.13;;;;;;;18.36;100.00;99567.16;31344958;28;20079;-75
2023/04/11 10:52:49;;;;;;;4.10;2.30;;;;;;;18.37;100.00;99533.69;31348778;28;20069;-78
2023/04/11 11:07:52;;;;;;;4.93;2.13;;;;;;;18.65;91.50;99531.25;31332461;28;20057;-75
2023/04/11 11:22:59;;;;;;;6.03;2.33;;;;;;;18.91;85.80;99502.91;31340510;28;20056;-76
2023/04/11 11:38:02;;;;;;;6.20;2.67;;;;;;;19.34;100.00;99484.44;31327221;28;20109;-75
2023/04/11 11:53:12;;;;;;;4.00;2.10;;;;;;;19.19;79.59;99473.59;31354085;28;20060;-75
2023/04/11 12:08:15;;;;;;;6.97;2.53;;;;;;;19.32;100.00;99471.16;31358307;28;20094;-75
2023/04/11 12:23:17;;;;;;;7.13;1.88;;;;;;;19.03;81.14;99447.50;31347705;28;20108;-75
2023/04/11 12:38:20;;;;;;;9.30;2.22;;;;;;;19.10;84.71;99410.53;31361309;28;20057;-74
2023/04/11 12:53:21;;;;;;;5.63;2.40;;;;;;;19.28;82.68;99426.63;31368146;28;20117;-74
2023/04/11 13:08:27;;;;;;;6.00;2.03;;;;;;;19.30;85.32;99410.38;31339131;28;20124;-76
2023/04/11 13:23:29;;;;;;;4.30;2.03;;;;;;;19.32;94.70;99394.13;31373826;28;20060;-75
2023/04/11 13:38:32;;;;;;;6.78;2.28;;;;;;;19.27;87.11;99392.09;31330911;28;20064;-78
2023/04/11 13:53:35;;;;;;;5.03;1.83;;;;;;;19.27;86.34;99392.09;31315696;28;20057;-80
2023/04/11 14:08:37;;;;;;;7.32;2.00;;;;;;;18.92;86.20;99386.16;31362375;28;20102;-77
2023/04/11 14:23:39;;;;;;;7.70;2.92;;;;;;;18.93;98.50;99368.41;31374064;28;20107;-81
2023/04/11 14:38:41;;;;;;;6.70;2.88;;;;;;;18.92;100.00;99367.66;31375635;28;20407;-80
2023/04/11 14:53:43;;;;;;;7.67;3.30;;;;;;;18.71;100.00;99364.31;31374276;28;20053;-78
2023/04/11 15:08:45;;;;;;;4.85;3.10;;;;;;;18.66;100.00;99378.78;31360342;28;20099;-80
2023/04/11 15:23:47;;;;;;;8.60;3.03;;;;;;;18.30;100.00;99374.03;31340517;28;20052;-82
2023/04/11 15:38:49;;;;;;;11.90;3.27;;;;;;;17.88;100.00;99367.19;31346514;28;20115;-78
2023/04/11 15:53:51;;;;;;;6.00;3.50;;;;;;;17.93;100.00;99385.72;31367237;28;20114;-82
2023/04/11 16:08:53;;;;;;;12.47;3.20;;;;;;;16.43;100.00;99417.47;31354684;28;20102;-80
2023/04/11 16:23:55;;;;;;;10.50;3.30;;;;;;;15.26;100.00;99393.47;31354892;28;20393;-78
2023/04/11 16:38:57;;;;;;;7.73;3.90;;;;;;;15.19;100.00;99375.44;31354144;28;20044;-77
2023/04/11 16:54:01;;;;;;;7.47;3.53;;;;;;;15.38;100.00;99361.59;31344338;28;20891;-79
2023/04/11 17:09:08;;;;;;;9.07;4.10;;;;;;;15.68;100.00;99363.19;31384160;28;20542;-77
2023/04/11 17:24:10;;;;;;;13.60;5.03;;;;;;;15.87;100.00;99359.03;31346338;28;20130;-74
2023/04/11 17:39:16;;;;;;;19.97;9.83;;;;;;;15.96;100.00;99361.69;31368821;28;20127;-78
2023/04/11 17:54:18;;;;;;;11.33;4.30;;;;;;;15.92;100.00;99361.13;31360638;28;20056;-75
2023/04/11 18:09:25;;;;;;;7.97;4.47;;;;;;;15.61;100.00;99363.56;31392528;28;20091;-76
2023/04/11 18:24:27;;;;;;;14.37;6.30;;;;;;;15.26;100.00;99355.94;31400640;28;20045;-78
2023/04/11 18:39:29;;;;;;;29.13;14.97;;;;;;;14.84;100.00;99350.63;31372359;28;20049;-78
2023/04/11 18:54:31;;;;;;;17.07;5.50;;;;;;;14.70;100.00;99331.41;31259991;28;20064;-79
2023/04/11 19:09:33;;;;;;;12.83;6.53;;;;;;;14.58;100.00;99335.91;31276334;28;20054;-80
2023/04/11 19:24:35;;;;;;;7.17;4.37;;;;;;;14.43;100.00;99313.22;31241219;28;20049;-80
2023/04/11 19:39:38;;;;;;;9.63;4.50;;;;;;;14.29;100.00;99303.69;31279389;28;20053;-80
2023/04/11 19:54:40;;;;;;;10.73;5.17;;;;;;;14.18;100.00;99289.78;31254089;28;20448;-79
2023/04/11 20:09:42;;;;;;;7.00;5.30;;;;;;;14.58;100.00;99286.75;31234662;28;20049;-78
2023/04/11 20:24:45;;;;;;;7.23;4.43;;;;;;;14.53;100.00;99277.19;31218032;28;20068;-79
2023/04/11 20:39:50;;;;;;;8.53;5.87;;;;;;;14.56;100.00;99270.06;31226313;28;20108;-78
2023/04/11 20:54:52;;;;;;;13.03;6.03;;;;;;;14.54;100.00;99264.31;31242483;28;20061;-79
2023/04/11 21:09:55;;;;;;;14.17;8.27;;;;;;;14.51;100.00;99249.59;31237160;28;20654;-79
2023/04/11 21:24:57;;;;;;;21.03;10.43;;;;;;;14.43;100.00;99242.22;31230889;28;20112;-78
2023/04/11 21:39:59;;;;;;;16.73;9.40;;;;;;;14.39;100.00;99234.19;31265941;28;20069;-77
2023/04/11 21:55:01;;;;;;;15.17;8.00;;;;;;;14.28;100.00;99220.28;31360889;28;20107;-77
2023/04/11 22:10:08;;;;;;;13.97;8.37;;;;;;;14.30;100.00;99210.44;31380138;28;20406;-77
2023/04/11 22:25:10;;;;;;;14.80;7.43;;;;;;;14.18;100.00;99175.16;31361685;28;20132;-76
2023/04/11 22:40:16;;;;;;;13.10;7.50;;;;;;;14.22;100.00;99168.31;31341720;28;20059;-78
2023/04/11 22:55:18;;;;;;;14.80;8.10;;;;;;;14.17;100.00;99157.28;31340122;28;20057;-76
2023/04/11 23:10:20;;;;;;;15.70;7.77;;;;;;;14.08;100.00;99139.00;31336072;28;20091;-76
2023/04/11 23:25:22;;;;;;;14.77;7.67;;;;;;;14.06;100.00;99127.03;31372145;28;20037;-75
2023/04/11 23:40:24;;;;;;;14.73;7.43;;;;;;;13.98;100.00;99116.47;31364437;28;20053;-76
2023/04/11 23:55:26;;;;;;;16.33;7.43;;;;;;;13.90;100.00;99088.03;31351991;28;20449;-76
